X  Luk Metar data     EKYT Aalborg Airport
Temperatur
23°C Temperatur
15°C Dugpunkt
61% Fugtighed



Vind
3 M/S
6 MPT
10 KM/T
5 KNOB



130°
Nuværende forhold

Klart Klart
Tryk 1010.92 (hPa) - 29.85 (inHg)
Sigt 6.2 (mil) - 10 (km)
Lufthavn
Lufthavnskode EKYT

Lokation: Aalborg Airport
Afstand: 54 (km)

Metar:
EKYT 010720Z AUTO 13005KT 100V160 9999 NCD 23/15 Q1011

Tid: 01-07-2022 09:20 CEST